sensor_id;sensor_type;location;lat;lon;timestamp;pressure;altitude;pressure_sealevel;temperature;humidity
23303;BME280;11820;48.738;9.092;2023-06-10T00:01:47;95923.00;;;19.87;100.00
23303;BME280;11820;48.738;9.092;2023-06-10T00:04:14;95924.28;;;19.65;100.00
23303;BME280;11820;48.738;9.092;2023-06-10T00:06:40;95928.06;;;19.32;100.00
23303;BME280;11820;48.738;9.092;2023-06-10T00:09:06;95927.84;;;19.39;100.00
23303;BME280;11820;48.738;9.092;2023-06-10T00:11:35;95925.31;;;19.64;100.00
23303;BME280;11820;48.738;9.092;2023-06-10T00:14:01;95924.19;;;19.45;100.00
23303;BME280;11820;48.738;9.092;2023-06-10T00:16:26;95927.81;;;19.29;100.00
23303;BME280;11820;48.738;9.092;2023-06-10T00:18:52;95928.41;;;19.46;100.00
23303;BME280;11820;48.738;9.092;2023-06-10T00:21:18;95930.31;;;19.14;100.00
23303;BME280;11820;48.738;9.092;2023-06-10T00:23:44;95926.25;;;19.33;100.00
23303;BME280;11820;48.738;9.092;2023-06-10T00:26:09;95925.22;;;19.34;100.00
23303;BME280;11820;48.738;9.092;2023-06-10T00:28:34;95926.28;;;19.38;100.00
23303;BME280;11820;48.738;9.092;2023-06-10T00:31:00;95922.06;;;19.32;100.00
23303;BME280;11820;48.738;9.092;2023-06-10T00:33:26;95925.78;;;19.51;100.00
23303;BME280;11820;48.738;9.092;2023-06-10T00:35:51;95920.59;;;19.56;100.00
23303;BME280;11820;48.738;9.092;2023-06-10T00:38:17;95928.59;;;18.88;100.00
23303;BME280;11820;48.738;9.092;2023-06-10T00:40:42;95927.56;;;18.89;100.00
23303;BME280;11820;48.738;9.092;2023-06-10T00:43:08;95929.25;;;19.10;100.00
23303;BME280;11820;48.738;9.092;2023-06-10T00:45:34;95927.16;;;19.12;100.00
23303;BME280;11820;48.738;9.092;2023-06-10T00:48:00;95933.94;;;19.03;100.00
23303;BME280;11820;48.738;9.092;2023-06-10T00:50:25;95928.72;;;19.08;100.00
23303;BME280;11820;48.738;9.092;2023-06-10T00:52:51;95926.03;;;18.98;100.00
23303;BME280;11820;48.738;9.092;2023-06-10T00:55:17;95930.75;;;19.01;100.00
23303;BME280;11820;48.738;9.092;2023-06-10T00:57:45;95929.44;;;18.93;100.00
23303;BME280;11820;48.738;9.092;2023-06-10T01:00:11;95924.94;;;18.89;100.00
23303;BME280;11820;48.738;9.092;2023-06-10T01:02:37;95917.63;;;18.96;100.00
23303;BME280;11820;48.738;9.092;2023-06-10T01:05:03;95924.41;;;18.87;100.00
23303;BME280;11820;48.738;9.092;2023-06-10T01:07:56;95926.59;;;19.05;100.00
23303;BME280;11820;48.738;9.092;2023-06-10T01:13:15;95922.34;;;18.94;100.00
23303;BME280;11820;48.738;9.092;2023-06-10T01:15:41;95921.03;;;18.91;100.00
23303;BME280;11820;48.738;9.092;2023-06-10T01:18:08;95914.97;;;18.91;100.00
23303;BME280;11820;48.738;9.092;2023-06-10T01:20:36;95917.56;;;18.86;100.00
23303;BME280;11820;48.738;9.092;2023-06-10T01:23:06;95913.28;;;18.70;100.00
23303;BME280;11820;48.738;9.092;2023-06-10T01:25:32;95923.06;;;18.48;100.00
23303;BME280;11820;48.738;9.092;2023-06-10T01:33:41;95911.06;;;18.52;100.00
23303;BME280;11820;48.738;9.092;2023-06-10T01:36:07;95917.38;;;18.56;100.00
23303;BME280;11820;48.738;9.092;2023-06-10T01:38:36;95917.72;;;18.33;100.00
23303;BME280;11820;48.738;9.092;2023-06-10T01:41:04;95912.56;;;18.43;100.00
23303;BME280;11820;48.738;9.092;2023-06-10T01:43:34;95915.84;;;18.60;100.00
23303;BME280;11820;48.738;9.092;2023-06-10T01:45:59;95913.00;;;18.30;100.00
23303;BME280;11820;48.738;9.092;2023-06-10T01:48:25;95913.09;;;18.45;100.00
23303;BME280;11820;48.738;9.092;2023-06-10T01:50:50;95915.72;;;18.45;100.00
23303;BME280;11820;48.738;9.092;2023-06-10T01:53:15;95924.34;;;18.40;100.00
23303;BME280;11820;48.738;9.092;2023-06-10T01:55:41;95919.84;;;18.36;100.00
23303;BME280;11820;48.738;9.092;2023-06-10T01:58:06;95923.50;;;18.35;100.00
23303;BME280;11820;48.738;9.092;2023-06-10T02:00:31;95922.34;;;18.26;100.00
23303;BME280;11820;48.738;9.092;2023-06-10T02:02:57;95922.25;;;18.42;100.00
23303;BME280;11820;48.738;9.092;2023-06-10T02:05:22;95923.06;;;18.48;100.00
23303;BME280;11820;48.738;9.092;2023-06-10T02:07:48;95926.63;;;18.32;100.00
23303;BME280;11820;48.738;9.092;2023-06-10T02:10:13;95934.28;;;18.17;100.00
23303;BME280;11820;48.738;9.092;2023-06-10T02:12:38;95938.94;;;18.10;100.00
23303;BME280;11820;48.738;9.092;2023-06-10T02:15:04;95930.94;;;17.95;100.00
23303;BME280;11820;48.738;9.092;2023-06-10T02:17:29;95931.94;;;17.89;100.00
23303;BME280;11820;48.738;9.092;2023-06-10T02:19:55;95933.00;;;17.93;100.00
23303;BME280;11820;48.738;9.092;2023-06-10T02:22:22;95931.88;;;17.84;100.00
23303;BME280;11820;48.738;9.092;2023-06-10T02:24:48;95931.44;;;17.92;100.00
23303;BME280;11820;48.738;9.092;2023-06-10T02:27:15;95937.53;;;17.98;100.00
23303;BME280;11820;48.738;9.092;2023-06-10T02:29:40;95939.25;;;17.87;100.00
23303;BME280;11820;48.738;9.092;2023-06-10T02:32:06;95934.31;;;17.91;100.00
23303;BME280;11820;48.738;9.092;2023-06-10T02:34:32;95937.22;;;17.94;100.00
23303;BME280;11820;48.738;9.092;2023-06-10T02:36:58;95941.22;;;18.01;100.00
23303;BME280;11820;48.738;9.092;2023-06-10T02:39:24;95935.28;;;18.11;100.00
23303;BME280;11820;48.738;9.092;2023-06-10T02:41:49;95942.16;;;18.17;100.00
23303;BME280;11820;48.738;9.092;2023-06-10T02:44:14;95946.16;;;18.24;100.00
23303;BME280;11820;48.738;9.092;2023-06-10T02:46:40;95950.22;;;18.37;100.00
23303;BME280;11820;48.738;9.092;2023-06-10T02:49:05;95946.97;;;18.25;100.00
23303;BME280;11820;48.738;9.092;2023-06-10T02:51:30;95952.66;;;18.22;100.00
23303;BME280;11820;48.738;9.092;2023-06-10T02:53:55;95956.44;;;18.04;100.00
23303;BME280;11820;48.738;9.092;2023-06-10T02:56:21;95954.41;;;17.85;100.00
23303;BME280;11820;48.738;9.092;2023-06-10T02:58:46;95951.97;;;17.79;100.00
23303;BME280;11820;48.738;9.092;2023-06-10T03:01:13;95949.72;;;17.87;100.00
23303;BME280;11820;48.738;9.092;2023-06-10T03:03:38;95949.00;;;17.70;100.00
23303;BME280;11820;48.738;9.092;2023-06-10T03:06:07;95948.34;;;17.85;100.00
23303;BME280;11820;48.738;9.092;2023-06-10T03:08:33;95953.44;;;17.70;100.00
23303;BME280;11820;48.738;9.092;2023-06-10T03:10:59;95954.44;;;17.64;100.00
23303;BME280;11820;48.738;9.092;2023-06-10T03:13:24;95958.84;;;17.63;100.00
23303;BME280;11820;48.738;9.092;2023-06-10T03:15:49;95951.94;;;17.52;100.00
23303;BME280;11820;48.738;9.092;2023-06-10T03:18:15;95963.09;;;17.69;100.00
23303;BME280;11820;48.738;9.092;2023-06-10T03:20:40;95963.66;;;17.71;100.00
23303;BME280;11820;48.738;9.092;2023-06-10T03:23:05;95965.22;;;17.72;100.00
23303;BME280;11820;48.738;9.092;2023-06-10T03:25:34;95965.81;;;17.74;100.00
23303;BME280;11820;48.738;9.092;2023-06-10T03:27:59;95966.56;;;17.75;100.00
23303;BME280;11820;48.738;9.092;2023-06-10T03:30:26;95973.34;;;17.71;100.00
23303;BME280;11820;48.738;9.092;2023-06-10T03:32:52;95974.06;;;17.66;100.00
23303;BME280;11820;48.738;9.092;2023-06-10T03:35:17;95979.88;;;17.73;100.00
23303;BME280;11820;48.738;9.092;2023-06-10T03:37:42;95979.19;;;17.56;100.00
23303;BME280;11820;48.738;9.092;2023-06-10T03:40:08;95979.66;;;17.53;100.00
23303;BME280;11820;48.738;9.092;2023-06-10T03:42:34;95987.44;;;17.70;100.00
23303;BME280;11820;48.738;9.092;2023-06-10T03:45:00;95981.19;;;17.49;100.00
23303;BME280;11820;48.738;9.092;2023-06-10T03:47:25;95984.81;;;17.48;100.00
23303;BME280;11820;48.738;9.092;2023-06-10T03:49:50;95985.94;;;17.52;100.00
23303;BME280;11820;48.738;9.092;2023-06-10T03:52:17;95980.38;;;17.49;100.00
23303;BME280;11820;48.738;9.092;2023-06-10T03:54:42;95987.78;;;17.35;100.00
23303;BME280;11820;48.738;9.092;2023-06-10T03:57:08;95993.03;;;17.35;100.00
23303;BME280;11820;48.738;9.092;2023-06-10T03:59:33;95984.97;;;17.58;100.00
23303;BME280;11820;48.738;9.092;2023-06-10T04:01:58;95998.31;;;17.40;100.00
23303;BME280;11820;48.738;9.092;2023-06-10T04:04:24;95990.34;;;17.52;100.00
23303;BME280;11820;48.738;9.092;2023-06-10T04:06:49;95989.94;;;17.38;100.00
23303;BME280;11820;48.738;9.092;2023-06-10T04:09:15;95992.75;;;17.53;100.00
23303;BME280;11820;48.738;9.092;2023-06-10T04:11:41;95991.22;;;17.57;100.00
23303;BME280;11820;48.738;9.092;2023-06-10T04:14:07;95985.50;;;17.60;100.00
23303;BME280;11820;48.738;9.092;2023-06-10T04:16:32;95988.34;;;17.59;100.00
23303;BME280;11820;48.738;9.092;2023-06-10T04:18:59;95995.22;;;17.43;100.00
23303;BME280;11820;48.738;9.092;2023-06-10T04:21:24;95989.81;;;17.71;100.00
23303;BME280;11820;48.738;9.092;2023-06-10T04:23:49;95997.72;;;17.55;100.00
23303;BME280;11820;48.738;9.092;2023-06-10T04:26:16;95993.59;;;17.80;100.00
23303;BME280;11820;48.738;9.092;2023-06-10T04:28:43;95997.53;;;17.83;100.00
23303;BME280;11820;48.738;9.092;2023-06-10T04:31:08;95997.19;;;17.74;100.00
23303;BME280;11820;48.738;9.092;2023-06-10T04:33:34;95999.22;;;17.72;100.00
23303;BME280;11820;48.738;9.092;2023-06-10T04:35:59;95996.75;;;17.82;100.00
23303;BME280;11820;48.738;9.092;2023-06-10T04:38:24;95997.78;;;17.81;100.00
23303;BME280;11820;48.738;9.092;2023-06-10T04:40:50;96003.78;;;17.82;100.00
23303;BME280;11820;48.738;9.092;2023-06-10T04:43:15;95999.47;;;17.92;100.00
23303;BME280;11820;48.738;9.092;2023-06-10T04:45:41;96001.59;;;17.95;100.00
23303;BME280;11820;48.738;9.092;2023-06-10T04:48:11;96000.38;;;18.02;100.00
23303;BME280;11820;48.738;9.092;2023-06-10T04:50:37;96001.31;;;18.18;100.00
23303;BME280;11820;48.738;9.092;2023-06-10T04:53:02;95997.53;;;18.30;100.00
23303;BME280;11820;48.738;9.092;2023-06-10T04:55:28;96006.44;;;18.29;100.00
23303;BME280;11820;48.738;9.092;2023-06-10T04:57:53;96004.66;;;18.35;100.00
23303;BME280;11820;48.738;9.092;2023-06-10T05:00:19;96003.47;;;18.47;100.00
23303;BME280;11820;48.738;9.092;2023-06-10T05:02:45;96012.44;;;18.56;100.00
23303;BME280;11820;48.738;9.092;2023-06-10T05:05:14;96015.41;;;18.65;100.00
23303;BME280;11820;48.738;9.092;2023-06-10T05:07:39;96008.78;;;18.57;100.00
23303;BME280;11820;48.738;9.092;2023-06-10T05:10:05;96013.91;;;18.74;100.00
23303;BME280;11820;48.738;9.092;2023-06-10T05:12:31;96014.13;;;18.67;100.00
23303;BME280;11820;48.738;9.092;2023-06-10T05:14:56;96014.41;;;18.71;100.00
23303;BME280;11820;48.738;9.092;2023-06-10T05:17:21;96010.84;;;18.82;100.00
23303;BME280;11820;48.738;9.092;2023-06-10T05:19:48;96013.47;;;18.82;100.00
23303;BME280;11820;48.738;9.092;2023-06-10T05:22:13;96015.41;;;18.96;100.00
23303;BME280;11820;48.738;9.092;2023-06-10T05:24:39;96011.47;;;18.99;100.00
23303;BME280;11820;48.738;9.092;2023-06-10T05:27:05;96015.50;;;19.11;100.00
23303;BME280;11820;48.738;9.092;2023-06-10T05:29:31;96019.16;;;19.10;100.00
23303;BME280;11820;48.738;9.092;2023-06-10T05:31:57;96016.53;;;19.10;100.00
23303;BME280;11820;48.738;9.092;2023-06-10T05:34:25;96019.59;;;19.29;100.00
23303;BME280;11820;48.738;9.092;2023-06-10T05:36:50;96009.66;;;19.31;100.00
23303;BME280;11820;48.738;9.092;2023-06-10T05:39:16;96012.31;;;19.41;100.00
23303;BME280;11820;48.738;9.092;2023-06-10T05:41:41;96020.22;;;19.46;100.00
23303;BME280;11820;48.738;9.092;2023-06-10T05:44:06;96022.81;;;19.46;100.00
23303;BME280;11820;48.738;9.092;2023-06-10T05:46:32;96029.22;;;19.60;100.00
23303;BME280;11820;48.738;9.092;2023-06-10T05:48:57;96022.66;;;19.62;100.00
23303;BME280;11820;48.738;9.092;2023-06-10T05:51:22;96025.84;;;19.69;100.00
23303;BME280;11820;48.738;9.092;2023-06-10T05:53:48;96026.28;;;19.56;100.00
23303;BME280;11820;48.738;9.092;2023-06-10T05:56:14;96031.09;;;19.69;100.00
23303;BME280;11820;48.738;9.092;2023-06-10T05:58:39;96035.63;;;19.83;100.00
23303;BME280;11820;48.738;9.092;2023-06-10T06:01:05;96023.03;;;19.90;100.00
23303;BME280;11820;48.738;9.092;2023-06-10T06:03:30;96021.47;;;19.94;100.00
23303;BME280;11820;48.738;9.092;2023-06-10T06:05:55;96023.81;;;19.86;100.00
23303;BME280;11820;48.738;9.092;2023-06-10T06:08:21;96034.81;;;19.78;100.00
23303;BME280;11820;48.738;9.092;2023-06-10T06:10:46;96025.16;;;19.93;100.00
23303;BME280;11820;48.738;9.092;2023-06-10T06:13:13;96018.84;;;19.94;100.00
23303;BME280;11820;48.738;9.092;2023-06-10T06:15:38;96028.41;;;20.10;100.00
23303;BME280;11820;48.738;9.092;2023-06-10T06:18:03;96025.78;;;20.10;100.00
23303;BME280;11820;48.738;9.092;2023-06-10T06:20:28;96027.38;;;20.16;100.00
23303;BME280;11820;48.738;9.092;2023-06-10T06:22:54;96025.53;;;20.17;100.00
23303;BME280;11820;48.738;9.092;2023-06-10T06:25:19;96033.69;;;20.20;100.00
23303;BME280;11820;48.738;9.092;2023-06-10T06:27:44;96031.09;;;20.30;100.00
23303;BME280;11820;48.738;9.092;2023-06-10T06:30:10;96033.72;;;20.35;100.00
23303;BME280;11820;48.738;9.092;2023-06-10T06:32:35;96025.03;;;20.35;100.00
23303;BME280;11820;48.738;9.092;2023-06-10T06:35:01;96022.41;;;20.40;100.00
23303;BME280;11820;48.738;9.092;2023-06-10T06:37:26;96025.31;;;20.48;100.00
23303;BME280;11820;48.738;9.092;2023-06-10T06:39:52;96035.34;;;20.56;100.00
23303;BME280;11820;48.738;9.092;2023-06-10T06:42:17;96022.97;;;20.52;100.00
23303;BME280;11820;48.738;9.092;2023-06-10T06:44:43;96033.78;;;20.60;100.00
23303;BME280;11820;48.738;9.092;2023-06-10T06:47:09;96036.94;;;20.67;100.00
23303;BME280;11820;48.738;9.092;2023-06-10T06:49:34;96034.28;;;20.62;100.00
23303;BME280;11820;48.738;9.092;2023-06-10T06:51:59;96039.03;;;20.65;100.00
23303;BME280;11820;48.738;9.092;2023-06-10T06:54:25;96030.66;;;20.83;100.00
23303;BME280;11820;48.738;9.092;2023-06-10T06:56:50;96041.72;;;20.85;100.00
23303;BME280;11820;48.738;9.092;2023-06-10T06:59:16;96036.44;;;20.90;100.00
23303;BME280;11820;48.738;9.092;2023-06-10T07:01:44;96045.91;;;20.96;100.00
23303;BME280;11820;48.738;9.092;2023-06-10T07:04:09;96040.91;;;21.00;100.00
23303;BME280;11820;48.738;9.092;2023-06-10T07:06:35;96053.53;;;21.08;100.00
23303;BME280;11820;48.738;9.092;2023-06-10T07:09:00;96046.44;;;21.13;100.00
23303;BME280;11820;48.738;9.092;2023-06-10T07:11:26;96050.38;;;21.16;100.00
23303;BME280;11820;48.738;9.092;2023-06-10T07:13:51;96048.78;;;21.15;100.00
23303;BME280;11820;48.738;9.092;2023-06-10T07:16:16;96049.59;;;21.15;100.00
23303;BME280;11820;48.738;9.092;2023-06-10T07:18:41;96050.63;;;21.19;100.00
23303;BME280;11820;48.738;9.092;2023-06-10T07:21:07;96048.25;;;21.28;100.00
23303;BME280;11820;48.738;9.092;2023-06-10T07:23:32;96053.25;;;21.34;100.00
23303;BME280;11820;48.738;9.092;2023-06-10T07:25:57;96049.56;;;21.25;100.00
23303;BME280;11820;48.738;9.092;2023-06-10T07:28:23;96043.78;;;21.28;100.00
23303;BME280;11820;48.738;9.092;2023-06-10T07:30:48;96045.34;;;21.39;100.00
23303;BME280;11820;48.738;9.092;2023-06-10T07:33:15;96046.91;;;21.50;100.00
23303;BME280;11820;48.738;9.092;2023-06-10T07:35:40;96037.19;;;21.50;100.00
23303;BME280;11820;48.738;9.092;2023-06-10T07:38:08;96037.94;;;21.71;100.00
23303;BME280;11820;48.738;9.092;2023-06-10T07:40:33;96042.66;;;21.74;100.00
23303;BME280;11820;48.738;9.092;2023-06-10T07:42:58;96039.25;;;21.73;100.00
23303;BME280;11820;48.738;9.092;2023-06-10T07:45:23;96034.72;;;21.79;100.00
23303;BME280;11820;48.738;9.092;2023-06-10T07:47:49;96040.81;;;21.79;100.00
23303;BME280;11820;48.738;9.092;2023-06-10T07:50:14;96046.34;;;21.83;100.00
23303;BME280;11820;48.738;9.092;2023-06-10T07:52:39;96038.94;;;21.85;100.00
23303;BME280;11820;48.738;9.092;2023-06-10T07:55:05;96052.06;;;21.95;100.00
23303;BME280;11820;48.738;9.092;2023-06-10T07:57:31;96046.03;;;21.89;100.00
23303;BME280;11820;48.738;9.092;2023-06-10T07:59:59;96052.31;;;21.93;100.00
23303;BME280;11820;48.738;9.092;2023-06-10T08:02:25;96041.50;;;22.00;100.00
23303;BME280;11820;48.738;9.092;2023-06-10T08:04:50;96044.69;;;21.97;100.00
23303;BME280;11820;48.738;9.092;2023-06-10T08:07:16;96050.97;;;22.06;100.00
23303;BME280;11820;48.738;9.092;2023-06-10T08:09:43;96041.50;;;22.00;100.00
23303;BME280;11820;48.738;9.092;2023-06-10T08:12:08;96040.22;;;21.97;100.00
23303;BME280;11820;48.738;9.092;2023-06-10T08:14:34;96043.25;;;22.19;100.00
23303;BME280;11820;48.738;9.092;2023-06-10T08:16:59;96038.06;;;22.09;100.00
23303;BME280;11820;48.738;9.092;2023-06-10T08:19:25;96045.44;;;22.07;100.00
23303;BME280;11820;48.738;9.092;2023-06-10T08:21:50;96044.09;;;22.15;100.00
23303;BME280;11820;48.738;9.092;2023-06-10T08:24:15;96036.59;;;22.32;100.00
23303;BME280;11820;48.738;9.092;2023-06-10T08:26:42;96031.28;;;22.47;100.00
23303;BME280;11820;48.738;9.092;2023-06-10T08:29:08;96032.63;;;22.83;100.00
23303;BME280;11820;48.738;9.092;2023-06-10T08:31:33;96045.16;;;22.62;100.00
23303;BME280;11820;48.738;9.092;2023-06-10T08:33:58;96039.59;;;22.69;100.00
23303;BME280;11820;48.738;9.092;2023-06-10T08:36:24;96046.47;;;22.65;100.00
23303;BME280;11820;48.738;9.092;2023-06-10T08:38:49;96041.47;;;22.63;100.00
23303;BME280;11820;48.738;9.092;2023-06-10T08:41:17;96045.47;;;22.61;100.00
23303;BME280;11820;48.738;9.092;2023-06-10T08:43:46;96037.84;;;22.54;100.00
23303;BME280;11820;48.738;9.092;2023-06-10T08:46:13;96043.56;;;22.66;100.00
23303;BME280;11820;48.738;9.092;2023-06-10T08:48:43;96041.09;;;22.80;100.00
23303;BME280;11820;48.738;9.092;2023-06-10T08:51:11;96045.94;;;22.68;100.00
23303;BME280;11820;48.738;9.092;2023-06-10T08:53:38;96042.31;;;22.54;100.00
23303;BME280;11820;48.738;9.092;2023-06-10T08:56:08;96039.63;;;22.64;100.00
23303;BME280;11820;48.738;9.092;2023-06-10T08:58:34;96034.19;;;22.89;100.00
23303;BME280;11820;48.738;9.092;2023-06-10T09:01:05;96030.13;;;22.96;100.00
23303;BME280;11820;48.738;9.092;2023-06-10T09:03:31;96032.56;;;22.93;100.00
23303;BME280;11820;48.738;9.092;2023-06-10T09:05:57;96031.75;;;22.97;100.00
23303;BME280;11820;48.738;9.092;2023-06-10T09:08:22;96028.72;;;23.08;100.00
23303;BME280;11820;48.738;9.092;2023-06-10T09:10:48;96029.44;;;23.24;100.00
23303;BME280;11820;48.738;9.092;2023-06-10T09:13:13;96026.41;;;23.35;100.00
23303;BME280;11820;48.738;9.092;2023-06-10T09:15:41;96029.72;;;23.46;100.00
23303;BME280;11820;48.738;9.092;2023-06-10T09:18:07;96029.44;;;23.47;100.00
23303;BME280;11820;48.738;9.092;2023-06-10T09:20:32;96034.06;;;23.60;100.00
23303;BME280;11820;48.738;9.092;2023-06-10T09:22:59;96029.38;;;23.52;100.00
23303;BME280;11820;48.738;9.092;2023-06-10T09:25:37;96021.03;;;23.45;100.00
23303;BME280;11820;48.738;9.092;2023-06-10T09:28:04;96024.22;;;23.42;100.00
23303;BME280;11820;48.738;9.092;2023-06-10T09:30:32;96025.63;;;23.35;100.00
23303;BME280;11820;48.738;9.092;2023-06-10T09:33:00;96021.78;;;23.46;100.00
23303;BME280;11820;48.738;9.092;2023-06-10T09:35:29;96024.47;;;23.69;100.00
23303;BME280;11820;48.738;9.092;2023-06-10T09:37:56;96028.06;;;23.55;100.00
23303;BME280;11820;48.738;9.092;2023-06-10T09:40:22;96029.63;;;23.56;100.00
23303;BME280;11820;48.738;9.092;2023-06-10T09:42:53;96020.44;;;23.77;100.00
23303;BME280;11820;48.738;9.092;2023-06-10T09:45:20;96011.00;;;23.94;100.00
23303;BME280;11820;48.738;9.092;2023-06-10T09:47:52;96011.09;;;24.08;100.00
23303;BME280;11820;48.738;9.092;2023-06-10T09:50:19;96010.53;;;24.29;100.00
23303;BME280;11820;48.738;9.092;2023-06-10T09:52:46;96014.91;;;24.39;100.00
23303;BME280;11820;48.738;9.092;2023-06-10T09:55:11;96005.53;;;24.46;100.00
23303;BME280;11820;48.738;9.092;2023-06-10T09:57:37;96004.78;;;24.64;99.43
23303;BME280;11820;48.738;9.092;2023-06-10T10:00:07;96013.84;;;24.77;98.02
23303;BME280;11820;48.738;9.092;2023-06-10T10:02:44;96014.22;;;24.70;96.79
23303;BME280;11820;48.738;9.092;2023-06-10T10:05:10;96004.25;;;24.62;96.35
23303;BME280;11820;48.738;9.092;2023-06-10T10:07:37;96004.78;;;24.64;94.96
23303;BME280;11820;48.738;9.092;2023-06-10T10:10:02;96004.63;;;24.74;94.56
23303;BME280;11820;48.738;9.092;2023-06-10T10:12:28;96001.31;;;24.82;90.60
23303;BME280;11820;48.738;9.092;2023-06-10T10:14:55;96003.91;;;25.00;92.10
23303;BME280;11820;48.738;9.092;2023-06-10T10:17:21;96009.22;;;25.19;92.03
23303;BME280;11820;48.738;9.092;2023-06-10T10:19:53;95996.41;;;25.07;90.35
23303;BME280;11820;48.738;9.092;2023-06-10T10:22:25;95996.59;;;25.11;90.17
23303;BME280;11820;48.738;9.092;2023-06-10T10:24:56;96000.81;;;25.12;90.22
23303;BME280;11820;48.738;9.092;2023-06-10T10:27:30;95991.91;;;25.40;90.38
23303;BME280;11820;48.738;9.092;2023-06-10T10:29:58;95991.38;;;25.65;86.52
23303;BME280;11820;48.738;9.092;2023-06-10T10:32:30;95996.41;;;25.80;86.54
23303;BME280;11820;48.738;9.092;2023-06-10T10:35:17;96003.34;;;25.22;86.63
23303;BME280;11820;48.738;9.092;2023-06-10T10:37:43;96002.59;;;25.16;87.99
23303;BME280;11820;48.738;9.092;2023-06-10T10:40:10;95998.75;;;25.09;88.59
23303;BME280;11820;48.738;9.092;2023-06-10T10:42:36;96000.09;;;25.25;88.26
23303;BME280;11820;48.738;9.092;2023-06-10T10:45:02;95999.75;;;25.58;87.13
23303;BME280;11820;48.738;9.092;2023-06-10T10:47:28;95997.41;;;25.84;87.79
23303;BME280;11820;48.738;9.092;2023-06-10T10:49:56;95994.56;;;25.67;85.81
23303;BME280;11820;48.738;9.092;2023-06-10T10:52:24;95994.34;;;25.77;86.53
23303;BME280;11820;48.738;9.092;2023-06-10T10:54:53;95996.69;;;25.65;84.69
23303;BME280;11820;48.738;9.092;2023-06-10T10:57:20;95991.91;;;25.53;83.36
23303;BME280;11820;48.738;9.092;2023-06-10T11:02:46;95981.88;;;25.64;83.48
23303;BME280;11820;48.738;9.092;2023-06-10T11:05:14;95990.72;;;25.46;83.35
23303;BME280;11820;48.738;9.092;2023-06-10T11:07:40;95989.91;;;25.45;83.85
23303;BME280;11820;48.738;9.092;2023-06-10T11:10:13;95988.94;;;25.68;84.59
23303;BME280;11820;48.738;9.092;2023-06-10T11:12:49;95987.16;;;25.64;83.65
23303;BME280;11820;48.738;9.092;2023-06-10T11:15:23;95987.00;;;25.60;84.25
23303;BME280;11820;48.738;9.092;2023-06-10T11:25:51;95984.44;;;25.69;79.71
23303;BME280;11820;48.738;9.092;2023-06-10T11:28:20;95977.34;;;26.18;80.95
23303;BME280;11820;48.738;9.092;2023-06-10T11:30:46;95976.78;;;26.08;76.77
23303;BME280;11820;48.738;9.092;2023-06-10T11:33:17;95984.06;;;25.89;79.22
23303;BME280;11820;48.738;9.092;2023-06-10T11:35:43;95981.75;;;26.23;80.40
23303;BME280;11820;48.738;9.092;2023-06-10T11:38:09;95972.75;;;26.59;79.23
23303;BME280;11820;48.738;9.092;2023-06-10T11:40:36;95976.91;;;26.38;78.83
23303;BME280;11820;48.738;9.092;2023-06-10T11:43:03;95969.84;;;26.34;78.82
23303;BME280;11820;48.738;9.092;2023-06-10T11:45:29;95964.97;;;26.14;81.01
23303;BME280;11820;48.738;9.092;2023-06-10T11:48:00;95969.06;;;26.33;80.10
23303;BME280;11820;48.738;9.092;2023-06-10T11:50:32;95974.06;;;26.70;79.48
23303;BME280;11820;48.738;9.092;2023-06-10T11:52:58;95968.09;;;26.29;78.67
23303;BME280;11820;48.738;9.092;2023-06-10T11:55:44;95969.72;;;26.39;78.00
23303;BME280;11820;48.738;9.092;2023-06-10T11:58:21;95959.63;;;26.27;78.77
23303;BME280;11820;48.738;9.092;2023-06-10T12:00:51;95969.50;;;26.62;79.52
23303;BME280;11820;48.738;9.092;2023-06-10T12:03:18;95963.25;;;26.66;76.89
23303;BME280;11820;48.738;9.092;2023-06-10T12:06:14;95967.47;;;26.46;78.47
23303;BME280;11820;48.738;9.092;2023-06-10T12:08:42;95961.22;;;26.85;77.38
23303;BME280;11820;48.738;9.092;2023-06-10T12:11:08;95959.53;;;27.11;76.70
23303;BME280;11820;48.738;9.092;2023-06-10T12:13:34;95959.28;;;26.99;74.66
23303;BME280;11820;48.738;9.092;2023-06-10T12:16:07;95964.88;;;26.98;74.15
23303;BME280;11820;48.738;9.092;2023-06-10T12:18:32;95963.81;;;26.77;74.66
23303;BME280;11820;48.738;9.092;2023-06-10T12:20:58;95959.41;;;26.94;73.47
23303;BME280;11820;48.738;9.092;2023-06-10T12:23:24;95955.63;;;27.09;72.92
23303;BME280;11820;48.738;9.092;2023-06-10T12:25:54;95951.69;;;27.37;73.16
23303;BME280;11820;48.738;9.092;2023-06-10T12:28:23;95945.38;;;27.63;74.01
23303;BME280;11820;48.738;9.092;2023-06-10T12:30:49;95949.94;;;27.32;74.36
23303;BME280;11820;48.738;9.092;2023-06-10T12:33:19;95950.41;;;27.34;72.72
23303;BME280;11820;48.738;9.092;2023-06-10T12:35:49;95951.88;;;27.10;73.18
23303;BME280;11820;48.738;9.092;2023-06-10T12:38:21;95953.72;;;26.87;72.32
23303;BME280;11820;48.738;9.092;2023-06-10T12:40:47;95957.59;;;26.81;74.01
23303;BME280;11820;48.738;9.092;2023-06-10T12:43:12;95951.88;;;26.88;73.13
23303;BME280;11820;48.738;9.092;2023-06-10T12:45:39;95954.06;;;27.16;71.82
23303;BME280;11820;48.738;9.092;2023-06-10T12:48:12;95953.03;;;27.04;73.09
23303;BME280;11820;48.738;9.092;2023-06-10T12:50:39;95948.59;;;26.69;71.90
23303;BME280;11820;48.738;9.092;2023-06-10T12:53:05;95957.44;;;26.56;72.96
23303;BME280;11820;48.738;9.092;2023-06-10T12:55:30;95964.91;;;26.41;73.64
23303;BME280;11820;48.738;9.092;2023-06-10T12:57:56;95956.97;;;26.27;73.19
23303;BME280;11820;48.738;9.092;2023-06-10T13:00:22;95957.09;;;26.22;72.57
23303;BME280;11820;48.738;9.092;2023-06-10T13:02:50;95949.47;;;26.21;73.45
23303;BME280;11820;48.738;9.092;2023-06-10T13:05:17;95947.50;;;26.13;73.06
23303;BME280;11820;48.738;9.092;2023-06-10T13:07:43;95945.75;;;26.08;72.25
23303;BME280;11820;48.738;9.092;2023-06-10T13:10:09;95951.16;;;26.03;73.32